sensor_id;sensor_type;location;lat;lon;timestamp;pressure;altitude;pressure_sealevel;temperature;humidity
70954;BME280;58618;47.490;8.736;2023-09-07T00:01:14;96802.06;;;15.01;100.00
70954;BME280;58618;47.490;8.736;2023-09-07T00:04:01;96799.75;;;14.99;100.00
70954;BME280;58618;47.490;8.736;2023-09-07T00:06:49;96810.13;;;14.99;100.00
70954;BME280;58618;47.490;8.736;2023-09-07T00:09:38;96803.03;;;14.91;100.00
70954;BME280;58618;47.490;8.736;2023-09-07T00:12:25;96798.19;;;14.98;100.00
70954;BME280;58618;47.490;8.736;2023-09-07T00:15:12;96802.63;;;14.98;100.00
70954;BME280;58618;47.490;8.736;2023-09-07T00:18:00;96804.56;;;14.92;100.00
70954;BME280;58618;47.490;8.736;2023-09-07T00:20:47;96807.47;;;14.91;100.00
70954;BME280;58618;47.490;8.736;2023-09-07T00:23:34;96798.25;;;14.85;100.00
70954;BME280;58618;47.490;8.736;2023-09-07T00:26:23;96797.28;;;14.80;100.00
70954;BME280;58618;47.490;8.736;2023-09-07T00:29:10;96798.81;;;14.82;100.00
70954;BME280;58618;47.490;8.736;2023-09-07T00:31:58;96800.34;;;14.83;100.00
70954;BME280;58618;47.490;8.736;2023-09-07T00:34:45;96801.50;;;14.76;100.00
70954;BME280;58618;47.490;8.736;2023-09-07T00:37:32;96797.47;;;14.70;100.00
70954;BME280;58618;47.490;8.736;2023-09-07T00:40:20;96802.66;;;14.70;100.00
70954;BME280;58618;47.490;8.736;2023-09-07T00:43:08;96788.28;;;14.64;100.00
70954;BME280;58618;47.490;8.736;2023-09-07T00:45:56;96800.56;;;14.72;100.00
70954;BME280;58618;47.490;8.736;2023-09-07T00:48:43;96803.25;;;14.67;100.00
70954;BME280;58618;47.490;8.736;2023-09-07T00:51:31;96804.59;;;14.65;100.00
70954;BME280;58618;47.490;8.736;2023-09-07T00:54:19;96801.72;;;14.66;100.00
70954;BME280;58618;47.490;8.736;2023-09-07T00:57:06;96803.25;;;14.67;100.00
70954;BME280;58618;47.490;8.736;2023-09-07T00:59:55;96808.06;;;14.60;100.00
70954;BME280;58618;47.490;8.736;2023-09-07T01:02:43;96802.88;;;14.60;100.00
70954;BME280;58618;47.490;8.736;2023-09-07T01:05:34;96803.47;;;14.57;100.00
70954;BME280;58618;47.490;8.736;2023-09-07T01:08:29;96806.63;;;14.54;100.00
70954;BME280;58618;47.490;8.736;2023-09-07T01:11:19;96802.97;;;14.55;100.00
70954;BME280;58618;47.490;8.736;2023-09-07T01:14:08;96801.06;;;14.47;100.00
70954;BME280;58618;47.490;8.736;2023-09-07T01:16:57;96790.03;;;14.42;100.00
70954;BME280;58618;47.490;8.736;2023-09-07T01:19:45;96789.03;;;14.51;100.00
70954;BME280;58618;47.490;8.736;2023-09-07T01:22:37;96791.66;;;14.51;100.00
70954;BME280;58618;47.490;8.736;2023-09-07T01:25:25;96794.41;;;14.55;100.00
70954;BME280;58618;47.490;8.736;2023-09-07T01:28:14;96781.75;;;14.53;100.00
70954;BME280;58618;47.490;8.736;2023-09-07T01:31:01;96793.38;;;14.56;100.00
70954;BME280;58618;47.490;8.736;2023-09-07T01:33:49;96780.56;;;14.59;100.00
70954;BME280;58618;47.490;8.736;2023-09-07T01:36:36;96794.63;;;14.58;100.00
70954;BME280;58618;47.490;8.736;2023-09-07T01:39:25;96792.69;;;14.50;100.00
70954;BME280;58618;47.490;8.736;2023-09-07T01:42:12;96785.00;;;14.45;100.00
70954;BME280;58618;47.490;8.736;2023-09-07T01:44:59;96793.06;;;14.44;100.00
70954;BME280;58618;47.490;8.736;2023-09-07T01:47:47;96791.47;;;14.48;100.00
70954;BME280;58618;47.490;8.736;2023-09-07T01:50:34;96791.34;;;14.39;100.00
70954;BME280;58618;47.490;8.736;2023-09-07T01:53:21;96790.19;;;14.45;100.00
70954;BME280;58618;47.490;8.736;2023-09-07T01:56:10;96789.31;;;14.36;100.00
70954;BME280;58618;47.490;8.736;2023-09-07T01:58:57;96782.41;;;14.31;100.00
70954;BME280;58618;47.490;8.736;2023-09-07T02:01:44;96781.13;;;14.29;100.00
70954;BME280;58618;47.490;8.736;2023-09-07T02:04:32;96794.13;;;14.29;100.00
70954;BME280;58618;47.490;8.736;2023-09-07T02:07:19;96787.59;;;14.31;100.00
70954;BME280;58618;47.490;8.736;2023-09-07T02:10:07;96782.09;;;14.33;100.00
70954;BME280;58618;47.490;8.736;2023-09-07T02:12:56;96794.59;;;14.31;100.00
70954;BME280;58618;47.490;8.736;2023-09-07T02:15:44;96792.91;;;14.40;100.00
70954;BME280;58618;47.490;8.736;2023-09-07T02:18:32;96793.38;;;14.42;100.00
70954;BME280;58618;47.490;8.736;2023-09-07T02:21:20;96793.06;;;14.30;100.00
70954;BME280;58618;47.490;8.736;2023-09-07T02:24:07;96798.06;;;14.26;100.00
70954;BME280;58618;47.490;8.736;2023-09-07T02:26:55;96800.34;;;14.28;100.00
70954;BME280;58618;47.490;8.736;2023-09-07T02:29:44;96796.63;;;14.20;100.00
70954;BME280;58618;47.490;8.736;2023-09-07T02:32:31;96798.25;;;14.16;100.00
70954;BME280;58618;47.490;8.736;2023-09-07T02:35:19;96802.69;;;14.16;100.00
70954;BME280;58618;47.490;8.736;2023-09-07T02:38:06;96803.72;;;14.15;100.00
70954;BME280;58618;47.490;8.736;2023-09-07T02:40:54;96809.97;;;14.14;100.00
70954;BME280;58618;47.490;8.736;2023-09-07T02:43:42;96807.47;;;14.09;100.00
70954;BME280;58618;47.490;8.736;2023-09-07T02:46:30;96805.91;;;14.08;100.00
70954;BME280;58618;47.490;8.736;2023-09-07T02:49:18;96800.72;;;14.08;100.00
70954;BME280;58618;47.490;8.736;2023-09-07T02:52:05;96793.63;;;14.00;100.00
70954;BME280;58618;47.490;8.736;2023-09-07T02:54:53;96795.34;;;14.04;100.00
70954;BME280;58618;47.490;8.736;2023-09-07T02:57:40;96798.22;;;14.03;100.00
70954;BME280;58618;47.490;8.736;2023-09-07T03:00:28;96792.47;;;14.06;100.00
70954;BME280;58618;47.490;8.736;2023-09-07T03:03:16;96797.19;;;14.04;100.00
70954;BME280;58618;47.490;8.736;2023-09-07T03:06:10;96801.88;;;14.02;100.00
70954;BME280;58618;47.490;8.736;2023-09-07T03:08:57;96793.63;;;14.00;100.00
70954;BME280;58618;47.490;8.736;2023-09-07T03:11:45;96785.94;;;13.94;100.00
70954;BME280;58618;47.490;8.736;2023-09-07T03:14:32;96789.97;;;14.01;100.00
70954;BME280;58618;47.490;8.736;2023-09-07T03:17:19;96783.34;;;13.94;100.00
70954;BME280;58618;47.490;8.736;2023-09-07T03:20:10;96792.25;;;14.02;100.00
70954;BME280;58618;47.490;8.736;2023-09-07T03:22:59;96798.22;;;14.03;100.00
70954;BME280;58618;47.490;8.736;2023-09-07T03:25:47;96796.22;;;14.00;100.00
70954;BME280;58618;47.490;8.736;2023-09-07T03:28:35;96796.69;;;14.02;100.00
70954;BME280;58618;47.490;8.736;2023-09-07T03:31:22;96795.91;;;14.01;100.00
70954;BME280;58618;47.490;8.736;2023-09-07T03:34:09;96802.72;;;13.97;100.00
70954;BME280;58618;47.490;8.736;2023-09-07T03:36:58;96804.56;;;13.96;100.00
70954;BME280;58618;47.490;8.736;2023-09-07T03:39:45;96798.41;;;13.92;100.00
70954;BME280;58618;47.490;8.736;2023-09-07T03:42:32;96796.88;;;13.91;100.00
70954;BME280;58618;47.490;8.736;2023-09-07T03:45:20;96799.53;;;13.86;100.00
70954;BME280;58618;47.490;8.736;2023-09-07T03:48:07;96800.59;;;13.85;100.00
70954;BME280;58618;47.490;8.736;2023-09-07T03:50:55;96799.00;;;13.89;100.00
70954;BME280;58618;47.490;8.736;2023-09-07T03:53:44;96804.72;;;13.86;100.00
70954;BME280;58618;47.490;8.736;2023-09-07T03:56:31;96798.00;;;13.85;100.00
70954;BME280;58618;47.490;8.736;2023-09-07T03:59:19;96803.19;;;13.85;100.00
70954;BME280;58618;47.490;8.736;2023-09-07T04:02:06;96795.91;;;13.87;100.00
70954;BME280;58618;47.490;8.736;2023-09-07T04:04:54;96796.84;;;13.78;100.00
70954;BME280;58618;47.490;8.736;2023-09-07T04:07:42;96799.25;;;13.74;100.00
70954;BME280;58618;47.490;8.736;2023-09-07T04:10:30;96794.16;;;13.69;100.00
70954;BME280;58618;47.490;8.736;2023-09-07T04:13:18;96795.88;;;13.74;100.00
70954;BME280;58618;47.490;8.736;2023-09-07T04:16:05;96803.84;;;13.77;100.00
70954;BME280;58618;47.490;8.736;2023-09-07T04:18:52;96791.47;;;13.74;100.00
70954;BME280;58618;47.490;8.736;2023-09-07T04:21:40;96806.44;;;13.77;100.00
70954;BME280;58618;47.490;8.736;2023-09-07T04:24:27;96807.03;;;13.74;100.00
70954;BME280;58618;47.490;8.736;2023-09-07T04:27:16;96810.66;;;13.73;100.00
70954;BME280;58618;47.490;8.736;2023-09-07T04:30:04;96802.41;;;13.71;100.00
70954;BME280;58618;47.490;8.736;2023-09-07T04:32:51;96809.69;;;13.69;100.00
70954;BME280;58618;47.490;8.736;2023-09-07T04:35:38;96809.22;;;13.67;100.00
70954;BME280;58618;47.490;8.736;2023-09-07T04:38:26;96806.63;;;13.67;100.00
70954;BME280;58618;47.490;8.736;2023-09-07T04:41:14;96806.03;;;13.70;100.00
70954;BME280;58618;47.490;8.736;2023-09-07T04:44:03;96811.81;;;13.67;100.00
70954;BME280;58618;47.490;8.736;2023-09-07T04:46:51;96804.13;;;13.76;100.00
70954;BME280;58618;47.490;8.736;2023-09-07T04:49:38;96809.13;;;13.72;100.00
70954;BME280;58618;47.490;8.736;2023-09-07T04:52:26;96808.16;;;13.68;100.00
70954;BME280;58618;47.490;8.736;2023-09-07T04:55:13;96816.41;;;13.70;100.00
70954;BME280;58618;47.490;8.736;2023-09-07T04:58:00;96815.44;;;13.66;100.00
70954;BME280;58618;47.490;8.736;2023-09-07T05:00:49;96819.84;;;13.66;100.00
70954;BME280;58618;47.490;8.736;2023-09-07T05:03:37;96817.41;;;13.74;100.00
70954;BME280;58618;47.490;8.736;2023-09-07T05:06:26;96824.69;;;13.72;100.00
70954;BME280;58618;47.490;8.736;2023-09-07T05:09:13;96822.09;;;13.72;100.00
70954;BME280;58618;47.490;8.736;2023-09-07T05:12:00;96818.91;;;13.75;100.00
70954;BME280;58618;47.490;8.736;2023-09-07T05:14:48;96825.28;;;13.83;100.00
70954;BME280;58618;47.490;8.736;2023-09-07T05:17:37;96823.38;;;13.88;100.00
70954;BME280;58618;47.490;8.736;2023-09-07T05:20:24;96829.53;;;13.92;100.00
70954;BME280;58618;47.490;8.736;2023-09-07T05:23:12;96820.34;;;14.00;100.00
70954;BME280;58618;47.490;8.736;2023-09-07T05:26:01;96829.75;;;14.10;100.00
70954;BME280;58618;47.490;8.736;2023-09-07T05:28:49;96833.72;;;14.21;100.00
70954;BME280;58618;47.490;8.736;2023-09-07T05:31:36;96831.50;;;14.28;100.00
70954;BME280;58618;47.490;8.736;2023-09-07T05:34:25;96837.09;;;14.35;100.00
70954;BME280;58618;47.490;8.736;2023-09-07T05:37:12;96845.09;;;14.52;100.00
70954;BME280;58618;47.490;8.736;2023-09-07T05:39:59;96833.47;;;14.63;100.00
70954;BME280;58618;47.490;8.736;2023-09-07T05:42:47;96842.13;;;14.72;100.00
70954;BME280;58618;47.490;8.736;2023-09-07T05:45:35;96845.00;;;14.85;100.00
70954;BME280;58618;47.490;8.736;2023-09-07T05:48:23;96848.44;;;14.94;100.00
70954;BME280;58618;47.490;8.736;2023-09-07T05:51:12;96844.94;;;15.12;100.00
70954;BME280;58618;47.490;8.736;2023-09-07T05:53:59;96843.19;;;15.21;100.00
70954;BME280;58618;47.490;8.736;2023-09-07T05:56:46;96844.28;;;15.42;100.00
70954;BME280;58618;47.490;8.736;2023-09-07T05:59:34;96853.78;;;16.14;100.00
70954;BME280;58618;47.490;8.736;2023-09-07T06:02:21;96861.66;;;17.36;100.00
70954;BME280;58618;47.490;8.736;2023-09-07T06:05:08;96857.50;;;18.50;100.00
70954;BME280;58618;47.490;8.736;2023-09-07T06:07:57;96866.09;;;19.09;100.00
70954;BME280;58618;47.490;8.736;2023-09-07T06:10:44;96856.47;;;20.41;100.00
70954;BME280;58618;47.490;8.736;2023-09-07T06:13:32;96864.78;;;21.04;100.00
70954;BME280;58618;47.490;8.736;2023-09-07T06:16:19;96855.03;;;22.12;100.00
70954;BME280;58618;47.490;8.736;2023-09-07T06:19:06;96863.66;;;21.97;100.00
70954;BME280;58618;47.490;8.736;2023-09-07T06:21:53;96858.94;;;22.18;100.00
70954;BME280;58618;47.490;8.736;2023-09-07T06:24:42;96853.97;;;22.01;100.00
70954;BME280;58618;47.490;8.736;2023-09-07T06:27:29;96853.66;;;22.18;100.00
70954;BME280;58618;47.490;8.736;2023-09-07T06:30:17;96854.41;;;22.97;100.00
70954;BME280;58618;47.490;8.736;2023-09-07T06:33:05;96849.91;;;23.17;100.00
70954;BME280;58618;47.490;8.736;2023-09-07T06:35:52;96846.34;;;22.90;100.00
70954;BME280;58618;47.490;8.736;2023-09-07T06:38:40;96851.31;;;23.88;100.00
70954;BME280;58618;47.490;8.736;2023-09-07T06:41:28;96849.47;;;25.06;100.00
70954;BME280;58618;47.490;8.736;2023-09-07T06:44:16;96852.72;;;25.26;100.00
70954;BME280;58618;47.490;8.736;2023-09-07T06:47:03;96852.78;;;24.76;100.00
70954;BME280;58618;47.490;8.736;2023-09-07T06:49:50;96854.25;;;24.25;100.00
70954;BME280;58618;47.490;8.736;2023-09-07T06:52:38;96857.94;;;23.78;100.00
70954;BME280;58618;47.490;8.736;2023-09-07T06:55:25;96860.03;;;25.06;100.00
70954;BME280;58618;47.490;8.736;2023-09-07T06:58:14;96864.31;;;25.47;100.00
70954;BME280;58618;47.490;8.736;2023-09-07T07:01:01;96867.84;;;24.08;100.00
70954;BME280;58618;47.490;8.736;2023-09-07T07:03:50;96863.09;;;23.94;100.00
70954;BME280;58618;47.490;8.736;2023-09-07T07:06:37;96858.94;;;24.58;100.00
70954;BME280;58618;47.490;8.736;2023-09-07T07:09:25;96864.66;;;26.57;94.36
70954;BME280;58618;47.490;8.736;2023-09-07T07:12:12;96865.50;;;26.68;89.92
70954;BME280;58618;47.490;8.736;2023-09-07T07:15:01;96866.81;;;27.64;80.53
70954;BME280;58618;47.490;8.736;2023-09-07T07:17:48;96866.69;;;26.74;84.26
70954;BME280;58618;47.490;8.736;2023-09-07T07:20:36;96860.84;;;27.05;88.22
70954;BME280;58618;47.490;8.736;2023-09-07T07:23:24;96861.16;;;25.38;100.00
70954;BME280;58618;47.490;8.736;2023-09-07T07:26:11;96853.19;;;26.93;91.10
70954;BME280;58618;47.490;8.736;2023-09-07T07:28:58;96854.34;;;26.96;93.64
70954;BME280;58618;47.490;8.736;2023-09-07T07:31:47;96858.16;;;26.98;92.57
70954;BME280;58618;47.490;8.736;2023-09-07T07:34:34;96856.75;;;26.16;92.91
70954;BME280;58618;47.490;8.736;2023-09-07T07:37:21;96866.09;;;26.43;95.72
70954;BME280;58618;47.490;8.736;2023-09-07T07:40:10;96869.19;;;26.60;93.93
70954;BME280;58618;47.490;8.736;2023-09-07T07:42:57;96862.00;;;25.76;93.30
70954;BME280;58618;47.490;8.736;2023-09-07T07:45:45;96857.34;;;25.62;99.91
70954;BME280;58618;47.490;8.736;2023-09-07T07:48:33;96857.72;;;25.34;99.74
70954;BME280;58618;47.490;8.736;2023-09-07T07:51:21;96856.94;;;27.54;78.39
70954;BME280;58618;47.490;8.736;2023-09-07T07:54:08;96856.72;;;27.11;86.60
70954;BME280;58618;47.490;8.736;2023-09-07T07:56:56;96857.69;;;25.60;100.00
70954;BME280;58618;47.490;8.736;2023-09-07T07:59:43;96855.03;;;25.60;100.00
70954;BME280;58618;47.490;8.736;2023-09-07T08:02:30;96865.66;;;25.34;97.39
70954;BME280;58618;47.490;8.736;2023-09-07T08:05:19;96852.72;;;25.89;96.88
70954;BME280;58618;47.490;8.736;2023-09-07T08:08:06;96854.31;;;26.92;89.47
70954;BME280;58618;47.490;8.736;2023-09-07T08:10:54;96857.97;;;25.85;97.38
70954;BME280;58618;47.490;8.736;2023-09-07T08:13:43;96853.31;;;26.60;90.58
70954;BME280;58618;47.490;8.736;2023-09-07T08:16:32;96845.41;;;27.25;88.70
70954;BME280;58618;47.490;8.736;2023-09-07T08:19:19;96846.44;;;26.04;95.58
70954;BME280;58618;47.490;8.736;2023-09-07T08:22:08;96851.06;;;26.58;85.60
70954;BME280;58618;47.490;8.736;2023-09-07T08:24:55;96839.91;;;27.58;85.10
70954;BME280;58618;47.490;8.736;2023-09-07T08:27:44;96835.19;;;27.23;83.48
70954;BME280;58618;47.490;8.736;2023-09-07T08:30:33;96839.81;;;25.84;91.64
70954;BME280;58618;47.490;8.736;2023-09-07T08:33:20;96849.53;;;25.73;92.22
70954;BME280;58618;47.490;8.736;2023-09-07T08:36:09;96842.50;;;24.94;100.00
70954;BME280;58618;47.490;8.736;2023-09-07T08:38:59;96840.41;;;25.07;99.73
70954;BME280;58618;47.490;8.736;2023-09-07T08:41:47;96844.63;;;25.41;100.00
70954;BME280;58618;47.490;8.736;2023-09-07T08:44:36;96833.59;;;26.46;99.27
70954;BME280;58618;47.490;8.736;2023-09-07T08:47:24;96827.84;;;26.37;100.00
70954;BME280;58618;47.490;8.736;2023-09-07T08:50:14;96836.38;;;26.20;100.00
70954;BME280;58618;47.490;8.736;2023-09-07T08:53:04;96832.06;;;27.04;95.93
70954;BME280;58618;47.490;8.736;2023-09-07T08:55:52;96838.81;;;27.88;83.36
70954;BME280;58618;47.490;8.736;2023-09-07T08:58:40;96828.00;;;26.15;90.96
70954;BME280;58618;47.490;8.736;2023-09-07T09:01:27;96829.56;;;26.19;95.76
70954;BME280;58618;47.490;8.736;2023-09-07T09:04:15;96826.38;;;26.98;88.67
70954;BME280;58618;47.490;8.736;2023-09-07T09:07:03;96830.66;;;26.59;89.42
70954;BME280;58618;47.490;8.736;2023-09-07T09:09:50;96831.56;;;27.53;85.99
70954;BME280;58618;47.490;8.736;2023-09-07T09:12:46;96838.03;;;27.73;80.74
70954;BME280;58618;47.490;8.736;2023-09-07T09:15:33;96823.41;;;27.10;87.46
70954;BME280;58618;47.490;8.736;2023-09-07T09:18:20;96825.34;;;27.20;91.02
70954;BME280;58618;47.490;8.736;2023-09-07T09:21:08;96829.47;;;27.14;89.31
70954;BME280;58618;47.490;8.736;2023-09-07T09:23:57;96824.63;;;26.62;93.08
70954;BME280;58618;47.490;8.736;2023-09-07T09:26:44;96818.59;;;26.65;92.72
70954;BME280;58618;47.490;8.736;2023-09-07T09:29:33;96809.22;;;25.49;100.00
70954;BME280;58618;47.490;8.736;2023-09-07T09:32:21;96818.81;;;26.01;96.13
70954;BME280;58618;47.490;8.736;2023-09-07T09:35:09;96816.34;;;25.79;100.00
70954;BME280;58618;47.490;8.736;2023-09-07T09:38:00;96809.75;;;25.99;100.00
70954;BME280;58618;47.490;8.736;2023-09-07T09:40:50;96815.50;;;25.68;100.00
70954;BME280;58618;47.490;8.736;2023-09-07T09:43:37;96810.34;;;25.82;100.00
70954;BME280;58618;47.490;8.736;2023-09-07T09:46:27;96817.84;;;25.43;100.00
70954;BME280;58618;47.490;8.736;2023-09-07T09:49:16;96818.59;;;25.10;100.00
70954;BME280;58618;47.490;8.736;2023-09-07T09:52:05;96814.63;;;24.70;100.00
70954;BME280;58618;47.490;8.736;2023-09-07T09:54:53;96812.09;;;24.51;100.00
70954;BME280;58618;47.490;8.736;2023-09-07T09:57:41;96809.72;;;24.95;100.00
70954;BME280;58618;47.490;8.736;2023-09-07T10:00:30;96813.59;;;25.35;100.00
70954;BME280;58618;47.490;8.736;2023-09-07T10:03:28;96803.22;;;25.52;100.00
70954;BME280;58618;47.490;8.736;2023-09-07T10:06:23;96800.72;;;24.73;100.00
70954;BME280;58618;47.490;8.736;2023-09-07T10:09:11;96799.66;;;25.04;100.00
70954;BME280;58618;47.490;8.736;2023-09-07T10:12:04;96796.25;;;24.77;100.00
70954;BME280;58618;47.490;8.736;2023-09-07T10:14:54;96799.38;;;25.13;100.00
70954;BME280;58618;47.490;8.736;2023-09-07T10:17:42;96786.41;;;25.34;100.00
70954;BME280;58618;47.490;8.736;2023-09-07T10:20:47;96790.91;;;25.30;100.00
70954;BME280;58618;47.490;8.736;2023-09-07T10:23:37;96795.84;;;25.02;100.00
70954;BME280;58618;47.490;8.736;2023-09-07T10:26:25;96787.94;;;25.35;100.00
70954;BME280;58618;47.490;8.736;2023-09-07T10:29:12;96778.25;;;25.46;100.00
70954;BME280;58618;47.490;8.736;2023-09-07T10:32:05;96778.53;;;25.04;100.00
70954;BME280;58618;47.490;8.736;2023-09-07T10:34:52;96780.00;;;25.02;100.00
70954;BME280;58618;47.490;8.736;2023-09-07T10:37:41;96772.81;;;25.32;100.00
70954;BME280;58618;47.490;8.736;2023-09-07T10:40:31;96775.16;;;25.37;100.00
70954;BME280;58618;47.490;8.736;2023-09-07T10:43:18;96774.59;;;25.21;100.00
70954;BME280;58618;47.490;8.736;2023-09-07T10:46:06;96772.75;;;25.25;100.00
70954;BME280;58618;47.490;8.736;2023-09-07T10:48:53;96761.66;;;25.49;100.00
70954;BME280;58618;47.490;8.736;2023-09-07T10:51:43;96773.06;;;25.53;100.00
70954;BME280;58618;47.490;8.736;2023-09-07T10:54:33;96778.09;;;25.32;100.00
70954;BME280;58618;47.490;8.736;2023-09-07T10:57:21;96774.09;;;25.45;100.00
70954;BME280;58618;47.490;8.736;2023-09-07T11:00:09;96770.41;;;25.20;100.00
70954;BME280;58618;47.490;8.736;2023-09-07T11:02:57;96760.09;;;25.08;100.00
70954;BME280;58618;47.490;8.736;2023-09-07T11:05:44;96759.84;;;25.20;100.00
70954;BME280;58618;47.490;8.736;2023-09-07T11:08:31;96753.28;;;25.40;100.00
70954;BME280;58618;47.490;8.736;2023-09-07T11:11:21;96753.50;;;25.61;100.00
70954;BME280;58618;47.490;8.736;2023-09-07T11:14:09;96750.63;;;25.77;100.00
70954;BME280;58618;47.490;8.736;2023-09-07T11:16:56;96749.22;;;25.87;100.00
70954;BME280;58618;47.490;8.736;2023-09-07T11:19:44;96749.31;;;25.57;100.00
70954;BME280;58618;47.490;8.736;2023-09-07T11:22:31;96748.31;;;25.69;100.00
70954;BME280;58618;47.490;8.736;2023-09-07T11:25:19;96739.63;;;25.72;100.00
70954;BME280;58618;47.490;8.736;2023-09-07T11:28:08;96735.63;;;25.85;100.00
70954;BME280;58618;47.490;8.736;2023-09-07T11:30:56;96742.41;;;25.86;100.00
70954;BME280;58618;47.490;8.736;2023-09-07T11:33:46;96736.41;;;25.89;100.00
70954;BME280;58618;47.490;8.736;2023-09-07T11:36:33;96737.09;;;25.86;100.00
70954;BME280;58618;47.490;8.736;2023-09-07T11:39:21;96727.97;;;25.76;100.00
70954;BME280;58618;47.490;8.736;2023-09-07T11:42:08;96729.59;;;25.88;100.00
70954;BME280;58618;47.490;8.736;2023-09-07T11:44:57;96732.72;;;26.00;100.00
70954;BME280;58618;47.490;8.736;2023-09-07T11:47:44;96721.78;;;26.05;100.00
70954;BME280;58618;47.490;8.736;2023-09-07T11:50:31;96729.06;;;26.19;100.00
70954;BME280;58618;47.490;8.736;2023-09-07T11:53:19;96724.28;;;25.84;100.00
70954;BME280;58618;47.490;8.736;2023-09-07T11:56:06;96731.88;;;25.93;100.00
70954;BME280;58618;47.490;8.736;2023-09-07T11:58:53;96726.34;;;26.12;100.00
70954;BME280;58618;47.490;8.736;2023-09-07T12:01:42;96726.75;;;26.14;100.00
70954;BME280;58618;47.490;8.736;2023-09-07T12:04:29;96720.88;;;25.84;100.00
70954;BME280;58618;47.490;8.736;2023-09-07T12:07:17;96716.94;;;26.11;100.00
70954;BME280;58618;47.490;8.736;2023-09-07T12:10:05;96718.38;;;26.05;100.00
70954;BME280;58618;47.490;8.736;2023-09-07T12:12:56;96717.84;;;26.33;100.00
70954;BME280;58618;47.490;8.736;2023-09-07T12:15:43;96714.03;;;26.30;100.00
70954;BME280;58618;47.490;8.736;2023-09-07T12:18:32;96721.63;;;26.32;100.00
70954;BME280;58618;47.490;8.736;2023-09-07T12:21:19;96720.81;;;26.24;100.00
70954;BME280;58618;47.490;8.736;2023-09-07T12:24:06;96715.63;;;26.38;99.27
70954;BME280;58618;47.490;8.736;2023-09-07T12:26:54;96704.81;;;26.10;97.66
70954;BME280;58618;47.490;8.736;2023-09-07T12:29:41;96711.06;;;26.39;100.00
70954;BME280;58618;47.490;8.736;2023-09-07T12:32:28;96709.25;;;26.50;100.00
70954;BME280;58618;47.490;8.736;2023-09-07T12:35:17;96711.16;;;26.57;97.60
70954;BME280;58618;47.490;8.736;2023-09-07T12:38:06;96708.75;;;26.30;98.03
70954;BME280;58618;47.490;8.736;2023-09-07T12:40:55;96707.34;;;26.51;98.22
70954;BME280;58618;47.490;8.736;2023-09-07T12:43:42;96668.19;;;26.12;99.35
70954;BME280;58618;47.490;8.736;2023-09-07T12:46:30;96705.88;;;26.57;99.63
70954;BME280;58618;47.490;8.736;2023-09-07T12:49:18;96704.41;;;26.66;100.00
70954;BME280;58618;47.490;8.736;2023-09-07T12:52:07;96695.34;;;26.67;98.10
70954;BME280;58618;47.490;8.736;2023-09-07T12:54:56;96703.69;;;26.76;93.82
70954;BME280;58618;47.490;8.736;2023-09-07T12:57:44;96694.56;;;26.67;94.82
70954;BME280;58618;47.490;8.736;2023-09-07T13:00:31;96698.78;;;26.82;94.29
70954;BME280;58618;47.490;8.736;2023-09-07T13:03:21;96695.44;;;26.92;100.00
70954;BME280;58618;47.490;8.736;2023-09-07T13:06:08;96691.31;;;26.98;100.00
70954;BME280;58618;47.490;8.736;2023-09-07T13:08:57;96688.72;;;27.12;92.93
70954;BME280;58618;47.490;8.736;2023-09-07T13:11:44;96684.16;;;27.13;95.18
70954;BME280;58618;47.490;8.736;2023-09-07T13:14:32;96681.13;;;27.00;92.89
70954;BME280;58618;47.490;8.736;2023-09-07T13:17:19;96684.91;;;27.13;91.05
70954;BME280;58618;47.490;8.736;2023-09-07T13:20:07;96680.41;;;27.24;92.01
70954;BME280;58618;47.490;8.736;2023-09-07T13:22:56;96677.41;;;27.33;86.46
70954;BME280;58618;47.490;8.736;2023-09-07T13:25:46;96676.63;;;27.25;93.30
70954;BME280;58618;47.490;8.736;2023-09-07T13:28:33;96676.25;;;27.27;97.44
70954;BME280;58618;47.490;8.736;2023-09-07T13:31:21;96675.88;;;27.28;100.00
70954;BME280;58618;47.490;8.736;2023-09-07T13:34:08;96666.78;;;27.29;97.48
70954;BME280;58618;47.490;8.736;2023-09-07T13:36:55;96664.88;;;27.19;100.00
70954;BME280;58618;47.490;8.736;2023-09-07T13:39:43;96664.50;;;27.21;100.00
70954;BME280;58618;47.490;8.736;2023-09-07T13:42:31;96663.75;;;27.20;100.00
70954;BME280;58618;47.490;8.736;2023-09-07T13:45:19;96655.81;;;27.27;100.00
70954;BME280;58618;47.490;8.736;2023-09-07T13:48:06;96659.94;;;27.14;100.00
70954;BME280;58618;47.490;8.736;2023-09-07T13:50:54;96665.25;;;27.14;96.82
70954;BME280;58618;47.490;8.736;2023-09-07T13:53:41;96646.34;;;27.19;92.40
70954;BME280;58618;47.490;8.736;2023-09-07T13:56:28;96664.16;;;27.44;86.05
70954;BME280;58618;47.490;8.736;2023-09-07T13:59:17;96653.94;;;27.31;96.49
70954;BME280;58618;47.490;8.736;2023-09-07T14:02:05;96654.31;;;27.34;88.66
70954;BME280;58618;47.490;8.736;2023-09-07T14:04:52;96652.41;;;27.23;88.21
70954;BME280;58618;47.490;8.736;2023-09-07T14:07:59;96660.75;;;27.40;87.45
70954;BME280;58618;47.490;8.736;2023-09-07T14:10:47;96666.06;;;27.43;88.70
70954;BME280;58618;47.490;8.736;2023-09-07T14:13:34;96660.75;;;27.43;86.00
70954;BME280;58618;47.490;8.736;2023-09-07T14:16:22;96657.72;;;27.34;84.39
70954;BME280;58618;47.490;8.736;2023-09-07T14:19:09;96656.19;;;27.29;100.00
70954;BME280;58618;47.490;8.736;2023-09-07T14:21:57;96654.69;;;27.21;100.00
70954;BME280;58618;47.490;8.736;2023-09-07T14:24:45;96661.44;;;26.98;100.00
70954;BME280;58618;47.490;8.736;2023-09-07T14:27:33;96660.31;;;27.02;85.53
70954;BME280;58618;47.490;8.736;2023-09-07T14:30:20;96662.22;;;27.19;83.45
70954;BME280;58618;47.490;8.736;2023-09-07T14:33:08;96656.97;;;27.26;84.58
70954;BME280;58618;47.490;8.736;2023-09-07T14:35:55;96661.09;;;27.20;100.00
70954;BME280;58618;47.490;8.736;2023-09-07T14:38:42;96658.44;;;27.24;94.30
70954;BME280;58618;47.490;8.736;2023-09-07T14:41:32;96656.16;;;27.01;100.00